createdAt,value
2023-04-15T06:20:51.508Z,999.66
2023-04-15T06:30:51.616Z,999.76
2023-04-15T06:40:51.528Z,999.78
2023-04-15T06:50:51.589Z,999.66
2023-04-15T07:00:51.533Z,999.77
2023-04-15T07:10:51.611Z,999.70
2023-04-15T07:20:51.762Z,999.68
2023-04-15T07:30:51.640Z,999.75
2023-04-15T07:40:51.576Z,999.74
2023-04-15T07:50:52.057Z,999.98
2023-04-15T08:00:51.652Z,999.87
2023-04-15T08:10:52.846Z,999.80
2023-04-15T08:20:51.623Z,999.96
2023-04-15T08:30:51.719Z,999.98
2023-04-15T08:40:51.762Z,1000.00
2023-04-15T08:50:51.831Z,999.94
2023-04-15T09:00:51.685Z,999.86
2023-04-15T09:10:51.599Z,1000.00
2023-04-15T09:20:51.829Z,1000.12
2023-04-15T09:30:51.609Z,1000.26
2023-04-15T09:40:51.600Z,1000.31
2023-04-15T09:50:51.679Z,1000.23
2023-04-15T10:00:51.608Z,1000.30
2023-04-15T10:10:51.626Z,1000.32
2023-04-15T10:20:51.673Z,1000.16
2023-04-15T10:30:51.818Z,1000.16
2023-04-15T10:40:51.833Z,1000.08
2023-04-15T10:50:51.708Z,1000.14
2023-04-15T11:00:51.627Z,1000.20
2023-04-15T11:10:51.746Z,1000.38
2023-04-15T11:20:51.705Z,1000.51
2023-04-15T11:30:51.835Z,1000.49
2023-04-15T11:40:51.969Z,1000.66
2023-04-15T11:50:51.912Z,1001.00
2023-04-15T12:00:51.834Z,1001.11
2023-04-15T12:10:51.802Z,1001.25
2023-04-15T12:20:51.888Z,1001.29
2023-04-15T12:30:52.155Z,1001.48
2023-04-15T12:40:52.001Z,1001.57
2023-04-15T12:50:51.902Z,1001.98
2023-04-15T13:00:51.803Z,1002.17
2023-04-15T13:10:51.888Z,1002.41
2023-04-15T13:20:51.865Z,1002.66
2023-04-15T13:30:51.923Z,1003.04
2023-04-15T13:40:51.917Z,1003.41
2023-04-15T13:50:52.197Z,1003.67
2023-04-15T14:00:52.097Z,1003.69
2023-04-15T14:10:51.868Z,1003.97
2023-04-15T14:20:51.993Z,1003.96
2023-04-15T14:30:51.851Z,1004.05
2023-04-15T14:40:51.976Z,1004.16
2023-04-15T14:50:51.839Z,1004.31
2023-04-15T15:00:52.112Z,1004.43
2023-04-15T15:10:51.948Z,1004.50
2023-04-15T15:20:51.885Z,1004.56
2023-04-15T15:30:52.282Z,1004.64
2023-04-15T15:40:51.991Z,1004.68
2023-04-15T15:50:52.046Z,1004.73
2023-04-15T16:00:52.012Z,1004.75
2023-04-15T16:10:52.064Z,1004.90
2023-04-15T16:20:51.971Z,1005.04
2023-04-15T16:30:51.940Z,1005.31
2023-04-15T16:40:52.160Z,1005.37
2023-04-15T16:50:52.115Z,1005.51
2023-04-15T17:00:52.163Z,1005.60
2023-04-15T17:10:52.347Z,1005.79
2023-04-15T17:20:52.098Z,1005.84
2023-04-15T17:30:52.513Z,1005.98
2023-04-15T17:40:52.255Z,1006.16
2023-04-15T17:50:52.405Z,1006.28
2023-04-15T18:00:52.476Z,1006.46
2023-04-15T18:10:52.255Z,1006.53
2023-04-15T18:20:52.350Z,1006.60
2023-04-15T18:30:52.298Z,1006.76
2023-04-15T18:40:52.386Z,1007.07
2023-04-15T18:50:52.346Z,1007.07
2023-04-15T19:00:52.612Z,1007.21
2023-04-15T19:10:52.535Z,1007.31
2023-04-15T19:20:52.588Z,1007.41
